createdAt,value
2017-02-18T00:00:32.236Z,0
2017-02-18T00:01:37.380Z,0
2017-02-18T00:02:43.473Z,0
2017-02-18T00:03:48.578Z,0
2017-02-18T00:04:53.703Z,0
2017-02-18T00:05:57.836Z,0
2017-02-18T00:07:03.935Z,0
2017-02-18T00:08:10.052Z,0
2017-02-18T00:09:15.179Z,0
2017-02-18T00:10:19.347Z,0
2017-02-18T00:11:23.509Z,0
2017-02-18T00:12:28.611Z,0
2017-02-18T00:13:34.709Z,0
2017-02-18T00:14:40.808Z,0
2017-02-18T00:15:45.925Z,0
2017-02-18T00:16:51.079Z,0
2017-02-18T00:17:57.163Z,0
2017-02-18T00:19:02.297Z,0
2017-02-18T00:20:07.428Z,0
2017-02-18T00:21:12.548Z,0
2017-02-18T00:22:18.641Z,0
2017-02-18T00:23:24.739Z,0
2017-02-18T00:24:30.849Z,0
2017-02-18T00:25:36.941Z,0
2017-02-18T00:26:43.030Z,0
2017-02-18T00:27:49.128Z,0
2017-02-18T00:28:55.239Z,0
2017-02-18T00:30:01.327Z,0
2017-02-18T00:31:07.425Z,0
2017-02-18T00:32:12.545Z,0
2017-02-18T00:33:18.641Z,0
2017-02-18T00:34:24.755Z,0
2017-02-18T00:35:30.851Z,0
2017-02-18T00:36:36.939Z,0
2017-02-18T00:37:41.104Z,0
2017-02-18T00:38:46.341Z,0
2017-02-18T00:39:52.439Z,0
2017-02-18T00:40:57.555Z,0
2017-02-18T00:42:01.715Z,0
2017-02-18T00:43:07.817Z,0
2017-02-18T00:44:12.026Z,0
2017-02-18T00:45:17.150Z,0
2017-02-18T00:46:23.223Z,0
2017-02-18T00:47:28.383Z,0
2017-02-18T00:48:32.772Z,0
2017-02-18T00:49:37.912Z,0
2017-02-18T00:50:44.009Z,0
2017-02-18T00:51:49.140Z,0
2017-02-18T00:52:55.286Z,0
2017-02-18T00:54:00.463Z,0
2017-02-18T00:55:05.763Z,0
2017-02-18T00:56:09.920Z,0
2017-02-18T00:57:16.055Z,0
2017-02-18T00:58:22.141Z,0
2017-02-18T00:59:26.302Z,0
2017-02-18T01:00:31.433Z,0
2017-02-18T01:01:36.562Z,0
2017-02-18T01:02:42.677Z,0
2017-02-18T01:03:48.760Z,0
2017-02-18T01:04:54.854Z,0
2017-02-18T01:05:59.987Z,0
2017-02-18T01:07:03.184Z,0
2017-02-18T01:08:09.285Z,0
2017-02-18T01:09:14.411Z,0
2017-02-18T01:10:17.603Z,0
2017-02-18T01:11:23.697Z,0
2017-02-18T01:12:29.814Z,0
2017-02-18T01:13:35.919Z,0
2017-02-18T01:14:42.006Z,0
2017-02-18T01:15:47.136Z,0
2017-02-18T01:16:53.240Z,0
2017-02-18T01:17:59.440Z,0
2017-02-18T01:19:05.522Z,0
2017-02-18T01:20:11.636Z,0
2017-02-18T01:21:17.728Z,0
2017-02-18T01:22:22.849Z,0
2017-02-18T01:23:26.983Z,0
2017-02-18T01:24:33.079Z,0
2017-02-18T01:25:38.178Z,0
2017-02-18T01:26:43.349Z,0
2017-02-18T01:27:48.534Z,0
2017-02-18T01:28:53.656Z,0
2017-02-18T01:29:56.854Z,0
2017-02-18T01:31:01.957Z,0
2017-02-18T01:32:07.293Z,0
2017-02-18T01:33:12.441Z,0
2017-02-18T08:13:39.548Z,155
2017-02-18T08:14:44.673Z,150
2017-02-18T08:15:49.818Z,155
2017-02-18T08:16:54.918Z,165
2017-02-18T08:18:00.026Z,170
2017-02-18T08:19:06.149Z,165
2017-02-18T08:20:12.250Z,165
2017-02-18T08:21:18.325Z,170
2017-02-18T08:22:23.468Z,185
2017-02-18T08:23:29.578Z,200
2017-02-18T08:24:33.741Z,235
2017-02-18T08:25:39.941Z,240
2017-02-18T08:26:45.062Z,250
2017-02-18T08:27:51.270Z,245
2017-02-18T08:28:57.362Z,245
2017-02-18T08:30:02.477Z,245
2017-02-18T08:31:08.580Z,255
2017-02-18T08:32:14.674Z,275
2017-02-18T08:33:19.812Z,280
2017-02-18T08:34:24.929Z,275
2017-02-18T08:35:30.021Z,275
2017-02-18T08:36:36.138Z,275
2017-02-18T08:37:41.274Z,265
2017-02-18T08:38:47.382Z,265
2017-02-18T08:39:52.535Z,260
2017-02-18T08:40:58.614Z,255
2017-02-18T08:42:04.712Z,255
2017-02-18T08:43:08.890Z,265
2017-02-18T08:44:14.996Z,265
2017-02-18T08:45:20.122Z,265
2017-02-18T08:46:25.259Z,275
2017-02-18T08:47:29.427Z,255
2017-02-18T08:48:33.564Z,255
2017-02-18T08:49:39.665Z,270
2017-02-18T08:50:44.797Z,285
2017-02-18T08:51:49.091Z,295
2017-02-18T08:52:55.192Z,310
2017-02-18T08:54:01.296Z,300
2017-02-18T08:55:03.501Z,315
2017-02-18T08:56:07.685Z,325
2017-02-18T08:57:13.759Z,345
2017-02-18T08:58:18.857Z,365
2017-02-18T08:59:24.954Z,355
2017-02-18T09:00:30.089Z,390
2017-02-18T09:01:36.183Z,425
2017-02-18T09:02:41.299Z,400
2017-02-18T09:03:46.398Z,420
2017-02-18T09:04:52.501Z,450
2017-02-18T09:05:57.609Z,480
2017-02-18T09:07:03.708Z,465
2017-02-18T09:08:07.878Z,515
2017-02-18T09:09:13.985Z,570
2017-02-18T09:10:19.118Z,540
2017-02-18T09:11:23.271Z,570
2017-02-18T09:12:28.393Z,555
2017-02-18T09:13:34.513Z,535
2017-02-18T09:14:40.631Z,705
2017-02-18T09:15:46.707Z,585
2017-02-18T09:16:51.825Z,500
2017-02-18T09:17:56.940Z,490
2017-02-18T09:19:02.050Z,580
2017-02-18T09:20:07.182Z,485
2017-02-18T09:21:13.275Z,485
2017-02-18T09:22:18.430Z,490
2017-02-18T09:23:22.650Z,440
2017-02-18T09:24:28.740Z,445
2017-02-18T09:25:33.013Z,480
2017-02-18T09:26:39.107Z,475
2017-02-18T09:27:43.272Z,490
2017-02-18T09:28:48.440Z,495
2017-02-18T09:29:54.530Z,535
2017-02-18T09:31:00.636Z,590
2017-02-18T09:32:06.733Z,555
2017-02-18T09:33:11.878Z,535
2017-02-18T09:34:16.046Z,700
2017-02-18T09:35:20.355Z,590
2017-02-18T09:36:24.537Z,585
2017-02-18T09:37:30.634Z,540
2017-02-18T09:38:36.744Z,545
2017-02-18T09:39:42.855Z,675
2017-02-18T09:40:48.934Z,890
2017-02-18T09:41:52.110Z,650
2017-02-18T09:42:58.232Z,610
2017-02-18T09:44:02.403Z,625
2017-02-18T09:45:07.557Z,760
2017-02-18T09:46:12.681Z,725
2017-02-18T09:47:17.801Z,680
2017-02-18T09:48:22.916Z,590
2017-02-18T09:49:28.069Z,600
2017-02-18T09:50:32.283Z,695
2017-02-18T09:51:36.476Z,645
2017-02-18T09:52:42.588Z,680
2017-02-18T09:53:47.736Z,875
2017-02-18T09:54:53.849Z,610
2017-02-18T09:55:58.994Z,675
2017-02-18T09:57:04.115Z,675
2017-02-18T09:58:09.266Z,705
2017-02-18T09:59:14.421Z,705
2017-02-18T10:00:20.606Z,685
2017-02-18T10:01:24.779Z,585
2017-02-18T10:02:29.934Z,565
2017-02-18T10:03:35.080Z,615
2017-02-18T10:04:40.219Z,670
2017-02-18T10:05:46.442Z,610
2017-02-18T10:06:51.587Z,640
2017-02-18T10:07:57.709Z,725
2017-02-18T10:09:03.822Z,580
2017-02-18T10:10:07.985Z,660
2017-02-18T10:11:14.133Z,625
2017-02-18T10:12:19.285Z,600
2017-02-18T10:13:25.364Z,545
2017-02-18T10:14:31.586Z,550
2017-02-18T10:15:37.711Z,645
2017-02-18T10:16:42.825Z,820
2017-02-18T10:17:48.934Z,700
2017-02-18T10:18:55.051Z,585
2017-02-18T10:20:01.174Z,585
2017-02-18T10:21:07.268Z,720
2017-02-18T10:22:11.410Z,675
2017-02-18T10:23:17.516Z,600
2017-02-18T10:24:23.617Z,590
2017-02-18T10:25:28.726Z,530
2017-02-18T10:26:33.861Z,580
2017-02-18T10:27:39.999Z,615
2017-02-18T10:28:44.170Z,570
2017-02-18T10:29:50.311Z,585
2017-02-18T10:30:55.411Z,630
2017-02-18T10:32:01.530Z,630
2017-02-18T10:33:07.650Z,610
2017-02-18T10:34:10.846Z,610
2017-02-18T10:35:16.958Z,580
2017-02-18T10:36:23.064Z,660
2017-02-18T10:37:28.200Z,615
2017-02-18T10:38:34.306Z,645
2017-02-18T10:39:39.433Z,835
2017-02-18T10:40:45.556Z,700
2017-02-18T10:41:50.691Z,850
2017-02-18T10:42:56.792Z,630
2017-02-18T10:44:02.906Z,680
2017-02-18T10:45:09.009Z,990
2017-02-18T10:46:15.145Z,1660
2017-02-18T10:47:20.305Z,1685
2017-02-18T10:48:23.520Z,2035
2017-02-18T10:49:28.665Z,1965
2017-02-18T10:50:34.799Z,1270
2017-02-18T10:51:39.936Z,1845
2017-02-18T10:52:45.063Z,1990
2017-02-18T10:53:50.185Z,1065
2017-02-18T10:54:55.322Z,1345
2017-02-18T10:55:58.521Z,1865
2017-02-18T10:57:02.665Z,1030
2017-02-18T10:58:06.880Z,1395
2017-02-18T10:59:12.999Z,1325
2017-02-18T11:00:19.114Z,1405
2017-02-18T11:01:24.244Z,1525
2017-02-18T11:02:29.397Z,1930
2017-02-18T11:03:34.537Z,1295
2017-02-18T11:04:39.650Z,1995
2017-02-18T11:05:45.752Z,1895
2017-02-18T11:06:51.911Z,1660
2017-02-18T11:07:57.058Z,860
2017-02-18T11:09:03.167Z,390
2017-02-18T11:10:09.287Z,360
2017-02-18T11:11:13.445Z,340
2017-02-18T11:12:19.640Z,305
2017-02-18T11:13:24.805Z,300
2017-02-18T11:14:29.950Z,305
2017-02-18T11:15:35.094Z,370
2017-02-18T11:16:41.216Z,1175
2017-02-18T11:17:47.322Z,1155
2017-02-18T11:18:52.510Z,345
2017-02-18T11:19:57.652Z,330
2017-02-18T11:21:02.795Z,320
2017-02-18T11:22:07.980Z,315
2017-02-18T11:23:13.122Z,340
2017-02-18T11:24:18.227Z,355
2017-02-18T11:25:22.378Z,350
2017-02-18T11:26:27.487Z,335
2017-02-18T11:27:33.647Z,365
2017-02-18T11:28:39.756Z,350
2017-02-18T11:29:45.862Z,360
2017-02-18T11:30:51.981Z,445
2017-02-18T11:31:56.219Z,500
2017-02-18T11:33:02.317Z,515
2017-02-18T11:34:06.497Z,525
2017-02-18T11:35:11.638Z,515
2017-02-18T11:36:16.768Z,470
2017-02-18T11:37:22.868Z,480
2017-02-18T11:38:28.026Z,480
2017-02-18T11:39:34.154Z,495
2017-02-18T11:40:40.273Z,465
2017-02-18T11:41:45.406Z,430
2017-02-18T11:42:50.520Z,380
2017-02-18T11:43:56.631Z,340
2017-02-18T11:45:02.729Z,340
2017-02-18T11:46:08.833Z,350
2017-02-18T11:47:14.940Z,365
2017-02-18T11:48:19.075Z,365
2017-02-18T11:49:24.219Z,370
2017-02-18T11:50:28.367Z,365
2017-02-18T11:51:34.484Z,360
2017-02-18T11:52:40.602Z,375
2017-02-18T11:53:46.668Z,390
2017-02-18T11:54:51.906Z,395
2017-02-18T11:55:57.138Z,395
2017-02-18T11:57:02.280Z,390
2017-02-18T11:58:08.409Z,415
2017-02-18T11:59:14.497Z,430
2017-02-18T12:00:19.763Z,445
2017-02-18T12:01:24.783Z,475
2017-02-18T12:02:30.989Z,450
2017-02-18T12:03:37.160Z,390
2017-02-18T12:04:43.269Z,335
2017-02-18T12:05:49.373Z,340
2017-02-18T12:06:54.511Z,335
2017-02-18T12:07:59.683Z,335
2017-02-18T12:09:05.771Z,335
2017-02-18T12:10:11.944Z,320
2017-02-18T12:11:17.104Z,330
2017-02-18T12:13:28.344Z,290
2017-02-18T12:14:34.456Z,265
2017-02-18T12:15:39.587Z,250
2017-02-18T12:16:42.754Z,260
2017-02-18T12:17:48.844Z,305
2017-02-18T12:18:54.956Z,330
2017-02-18T12:20:01.066Z,315
2017-02-18T12:21:06.204Z,295
2017-02-18T12:22:10.358Z,285
2017-02-18T12:23:15.473Z,305
2017-02-18T12:24:21.615Z,300
2017-02-18T12:25:25.734Z,320
2017-02-18T12:26:29.975Z,360
2017-02-18T12:27:36.091Z,345
2017-02-18T12:28:41.224Z,340
2017-02-18T12:29:45.393Z,350
2017-02-18T12:30:50.548Z,390
2017-02-18T12:31:54.693Z,410
2017-02-18T12:32:58.871Z,435
2017-02-18T12:34:03.988Z,455
2017-02-18T12:35:09.128Z,450
2017-02-18T12:36:14.256Z,465
2017-02-18T12:37:19.401Z,450
2017-02-18T12:38:24.524Z,460
2017-02-18T12:39:30.622Z,465
2017-02-18T12:40:33.815Z,440
2017-02-18T12:41:38.008Z,420
2017-02-18T12:42:44.137Z,435
2017-02-18T12:43:47.358Z,430
2017-02-18T12:44:51.549Z,430
2017-02-18T12:45:56.652Z,425
2017-02-18T12:47:01.839Z,415
2017-02-18T12:48:06.144Z,410
2017-02-18T12:49:08.349Z,395
2017-02-18T12:50:13.485Z,385
2017-02-18T12:51:18.641Z,375
2017-02-18T12:52:24.743Z,355
2017-02-18T12:53:30.845Z,370
2017-02-18T12:54:35.990Z,360
2017-02-18T12:55:42.214Z,350
2017-02-18T12:56:47.334Z,350
2017-02-18T12:57:53.484Z,340
2017-02-18T12:58:59.585Z,340
2017-02-18T13:00:03.762Z,330
2017-02-18T13:01:08.869Z,320
2017-02-18T13:02:13.025Z,315
2017-02-18T13:03:18.210Z,315
2017-02-18T13:04:24.255Z,310
2017-02-18T13:05:29.384Z,315
2017-02-18T13:06:35.500Z,320
2017-02-18T13:07:41.632Z,295
2017-02-18T13:08:44.789Z,290
2017-02-18T13:09:49.926Z,295
2017-02-18T13:10:55.050Z,275
2017-02-18T13:12:01.168Z,260
2017-02-18T13:13:07.263Z,255
2017-02-18T13:14:13.363Z,255
2017-02-18T13:15:18.467Z,255
2017-02-18T13:16:22.714Z,255
2017-02-18T13:17:27.846Z,255
2017-02-18T13:18:33.953Z,255
2017-02-18T13:19:38.136Z,260
2017-02-18T13:20:43.273Z,260
2017-02-18T13:21:49.366Z,265
2017-02-18T13:22:54.539Z,265
2017-02-18T13:24:00.639Z,265
2017-02-18T13:25:05.748Z,270
2017-02-18T13:26:10.885Z,280
2017-02-18T13:27:15.997Z,305
2017-02-18T13:28:21.123Z,305
2017-02-18T13:29:25.253Z,295
2017-02-18T13:30:31.350Z,290
2017-02-18T13:31:36.484Z,290
2017-02-18T13:32:42.624Z,300
2017-02-18T13:33:48.710Z,330
2017-02-18T13:34:54.819Z,335
2017-02-18T13:35:58.959Z,330
2017-02-18T13:37:04.095Z,325
2017-02-18T13:38:09.355Z,330
2017-02-18T13:39:14.601Z,325
2017-02-18T13:40:18.755Z,320
2017-02-18T13:41:23.891Z,315
2017-02-18T13:42:29.012Z,310
2017-02-18T13:43:34.122Z,310
2017-02-18T13:44:39.250Z,305
2017-02-18T13:45:44.387Z,300
2017-02-18T13:46:48.545Z,290
2017-02-18T13:47:53.694Z,275
2017-02-18T13:48:59.782Z,270
2017-02-18T13:50:05.887Z,260
2017-02-18T13:51:11.037Z,255
2017-02-18T13:52:15.206Z,255
2017-02-18T13:53:21.314Z,245
2017-02-18T13:54:25.484Z,240
2017-02-18T13:55:30.612Z,235
2017-02-18T13:56:35.750Z,240
2017-02-18T13:57:41.881Z,225
2017-02-18T13:58:47.012Z,215
2017-02-18T13:59:52.111Z,210
2017-02-18T14:00:58.207Z,200
2017-02-18T14:02:03.346Z,200
2017-02-18T14:03:08.534Z,210
2017-02-18T14:04:14.598Z,210
2017-02-18T14:05:19.802Z,205
2017-02-18T14:06:24.927Z,200
2017-02-18T14:07:30.079Z,200
2017-02-18T14:08:34.290Z,200
2017-02-18T14:09:40.390Z,195
2017-02-18T14:10:46.484Z,190
2017-02-18T14:11:52.581Z,190
2017-02-18T14:12:58.688Z,195
2017-02-18T14:14:04.782Z,200
2017-02-18T14:15:10.889Z,210
2017-02-18T14:16:16.031Z,215
2017-02-18T14:17:20.191Z,220
2017-02-18T14:18:25.375Z,215
2017-02-18T14:19:30.463Z,210
2017-02-18T14:20:35.561Z,215
2017-02-18T14:21:40.678Z,205
2017-02-18T14:22:45.816Z,195
2017-02-18T14:23:50.976Z,185
2017-02-18T14:24:57.081Z,185
2017-02-18T14:26:00.373Z,190
2017-02-18T14:27:06.468Z,180
2017-02-18T14:28:10.604Z,180
2017-02-18T14:29:16.736Z,175
2017-02-18T14:30:22.822Z,165
2017-02-18T14:31:27.987Z,170
2017-02-18T14:32:34.083Z,170
2017-02-18T14:33:39.195Z,165
2017-02-18T14:34:44.330Z,170
2017-02-18T14:35:50.429Z,175
2017-02-18T14:36:55.565Z,165
2017-02-18T14:38:01.667Z,155
2017-02-18T14:39:04.901Z,160
2017-02-18T14:40:10.062Z,170
2017-02-18T14:41:16.253Z,165
2017-02-18T14:42:22.356Z,160
2017-02-18T14:43:27.462Z,155
2017-02-18T14:44:32.607Z,155
2017-02-18T14:45:38.711Z,145
2017-02-18T14:46:42.849Z,140
2017-02-18T14:47:48.959Z,135
2017-02-18T14:48:53.130Z,130
2017-02-18T14:49:58.258Z,135
2017-02-18T14:51:03.396Z,135
2017-02-18T14:52:09.529Z,130
2017-02-18T14:53:12.693Z,120
2017-02-18T14:54:18.807Z,115
2017-02-18T14:55:24.890Z,120
2017-02-18T14:56:30.013Z,125
2017-02-18T14:57:36.109Z,125
2017-02-18T14:58:41.260Z,125
2017-02-18T14:59:46.389Z,130
2017-02-18T15:00:52.551Z,130
2017-02-18T15:01:58.645Z,125
2017-02-18T15:03:01.904Z,115
2017-02-18T15:04:06.939Z,115
2017-02-18T15:05:13.103Z,120
2017-02-18T15:06:19.204Z,120
2017-02-18T15:07:23.363Z,120
2017-02-18T15:08:28.496Z,115
2017-02-18T15:09:34.618Z,105
2017-02-18T15:10:38.757Z,110
2017-02-18T15:11:42.900Z,115
2017-02-18T15:12:49.001Z,115
2017-02-18T15:13:55.099Z,110
2017-02-18T15:15:01.295Z,100
2017-02-18T15:16:05.355Z,95
2017-02-18T15:17:09.486Z,95
2017-02-18T15:18:13.665Z,90
2017-02-18T15:19:17.825Z,90
2017-02-18T15:20:23.933Z,90
2017-02-18T15:21:30.028Z,90
2017-02-18T15:22:35.165Z,95
2017-02-18T15:23:40.307Z,95
2017-02-18T15:24:46.406Z,95
2017-02-18T15:25:51.547Z,90
2017-02-18T15:26:56.660Z,90
2017-02-18T15:28:01.810Z,85
2017-02-18T15:29:07.917Z,90
2017-02-18T15:30:13.050Z,90
2017-02-18T15:31:18.180Z,95
2017-02-18T15:32:24.293Z,95
2017-02-18T15:33:29.440Z,95
2017-02-18T15:34:34.685Z,95
2017-02-18T15:35:38.841Z,90
2017-02-18T15:36:44.963Z,90
2017-02-18T15:37:49.142Z,85
2017-02-18T15:38:54.281Z,90
2017-02-18T15:41:06.494Z,80
2017-02-18T15:42:12.606Z,75
2017-02-18T15:43:18.725Z,70
2017-02-18T15:44:21.950Z,70
2017-02-18T15:45:28.045Z,70
2017-02-18T15:46:33.234Z,70
2017-02-18T15:47:38.352Z,70
2017-02-18T15:48:44.450Z,70
2017-02-18T15:49:49.583Z,70
2017-02-18T15:50:54.686Z,70
2017-02-18T15:51:59.815Z,65
2017-02-18T15:53:04.950Z,60
2017-02-18T15:54:09.098Z,60
2017-02-18T15:55:15.203Z,60
2017-02-18T15:56:18.367Z,60
2017-02-18T15:57:23.490Z,60
2017-02-18T15:58:29.603Z,60
2017-02-18T15:59:35.697Z,60
2017-02-18T16:00:40.801Z,55
2017-02-18T16:01:46.909Z,55
2017-02-18T16:02:52.047Z,50
2017-02-18T16:03:57.145Z,50
2017-02-18T16:05:01.325Z,50
2017-02-18T16:06:07.428Z,50
2017-02-18T16:07:13.526Z,50
2017-02-18T16:08:18.655Z,45
2017-02-18T16:09:24.794Z,45
2017-02-18T16:10:30.906Z,45
2017-02-18T16:11:36.077Z,40
2017-02-18T16:12:41.221Z,40
2017-02-18T16:13:47.319Z,40
2017-02-18T16:14:53.439Z,40
2017-02-18T16:15:58.626Z,40
2017-02-18T16:17:03.763Z,35
2017-02-18T16:18:09.876Z,35
2017-02-18T16:19:15.974Z,35
2017-02-18T16:20:22.073Z,35
2017-02-18T16:21:28.171Z,30
2017-02-18T16:22:34.279Z,30
2017-02-18T16:23:39.407Z,30
2017-02-18T16:24:45.506Z,25
2017-02-18T16:25:50.668Z,25
2017-02-18T16:26:56.726Z,25
2017-02-18T16:28:00.876Z,25
2017-02-18T16:29:05.174Z,20
2017-02-18T16:30:11.282Z,20
2017-02-18T16:31:15.480Z,20
2017-02-18T16:32:21.556Z,20
2017-02-18T16:33:27.678Z,15
2017-02-18T16:34:33.780Z,15
2017-02-18T16:35:38.915Z,15
2017-02-18T16:36:45.024Z,10
2017-02-18T16:37:51.130Z,10
2017-02-18T16:38:54.315Z,10
2017-02-18T16:41:04.568Z,10
2017-02-18T16:42:10.762Z,5
2017-02-18T16:43:15.900Z,5
2017-02-18T16:44:22.011Z,5
2017-02-18T16:45:27.143Z,5
2017-02-18T16:46:32.258Z,5
2017-02-18T16:47:37.433Z,5
2017-02-18T16:48:40.717Z,5
2017-02-18T16:49:45.980Z,5
2017-02-18T16:50:51.119Z,5
2017-02-18T16:51:57.214Z,5
2017-02-18T16:53:01.378Z,5
2017-02-18T16:54:06.514Z,5
2017-02-18T16:55:11.770Z,0
2017-02-18T16:56:16.894Z,0
2017-02-18T16:57:23.080Z,0
2017-02-18T16:58:29.184Z,0
2017-02-18T16:59:34.310Z,0
2017-02-18T17:00:38.591Z,0
2017-02-18T17:01:40.818Z,0
2017-02-18T17:02:44.995Z,0
2017-02-18T17:03:50.098Z,0
2017-02-18T17:04:55.244Z,0
2017-02-18T17:06:01.349Z,0
2017-02-18T17:07:06.487Z,0
2017-02-18T17:08:09.656Z,0
2017-02-18T17:09:15.771Z,0
2017-02-18T17:10:21.873Z,0
2017-02-18T17:11:27.977Z,0
2017-02-18T17:12:34.093Z,0
2017-02-18T17:13:39.217Z,0
2017-02-18T17:14:43.386Z,0
2017-02-18T17:15:47.543Z,0
2017-02-18T17:16:53.661Z,0
2017-02-18T17:17:59.735Z,0
2017-02-18T17:19:04.843Z,0
2017-02-18T17:20:10.946Z,0
2017-02-18T17:21:17.060Z,0
2017-02-18T17:22:21.238Z,0
2017-02-18T17:23:27.350Z,0
2017-02-18T17:24:31.571Z,0
2017-02-18T17:25:37.656Z,0
2017-02-18T17:26:42.789Z,0
2017-02-18T17:27:46.922Z,0
2017-02-18T17:28:52.061Z,0
2017-02-18T17:29:57.194Z,0
2017-02-18T17:31:03.299Z,0
2017-02-18T17:32:09.397Z,0
2017-02-18T17:33:15.500Z,0
2017-02-18T17:34:21.615Z,0
2017-02-18T17:35:27.731Z,0
2017-02-18T17:36:32.872Z,0
2017-02-18T17:37:38.980Z,0
2017-02-18T17:38:44.120Z,0
2017-02-18T17:39:49.239Z,0
2017-02-18T17:40:55.348Z,0
2017-02-18T17:42:01.473Z,0
2017-02-18T17:43:06.629Z,0
2017-02-18T17:44:10.796Z,0
2017-02-18T17:45:16.893Z,0
2017-02-18T17:46:22.114Z,0
2017-02-18T17:47:28.220Z,0
2017-02-18T17:48:34.312Z,0
2017-02-18T17:49:40.409Z,0
2017-02-18T17:50:46.563Z,0
2017-02-18T17:51:51.677Z,0
2017-02-18T17:52:56.817Z,0
2017-02-18T17:54:02.922Z,0
2017-02-18T17:55:08.087Z,0
2017-02-18T17:56:14.200Z,0
2017-02-18T17:57:20.311Z,0
2017-02-18T17:58:24.506Z,0
2017-02-18T17:59:28.657Z,0
2017-02-18T18:00:33.830Z,0
2017-02-18T18:01:39.940Z,0
2017-02-18T18:02:45.048Z,0
2017-02-18T18:03:49.216Z,0
2017-02-18T18:04:53.351Z,0
2017-02-18T18:05:58.488Z,0
2017-02-18T18:07:03.629Z,0
2017-02-18T18:08:08.760Z,0
2017-02-18T18:09:13.890Z,0
2017-02-18T18:10:19.036Z,0
2017-02-18T18:11:24.177Z,0
2017-02-18T18:12:29.279Z,0
2017-02-18T18:13:35.380Z,0
2017-02-18T18:14:41.479Z,0
2017-02-18T18:15:47.579Z,0
2017-02-18T18:16:52.687Z,0
2017-02-18T18:17:56.848Z,0
2017-02-18T18:19:01.990Z,0
2017-02-18T18:20:08.078Z,0
2017-02-18T18:21:13.212Z,0
2017-02-18T18:22:19.321Z,0
2017-02-18T18:23:25.437Z,0
2017-02-18T18:24:31.526Z,0
2017-02-18T18:25:37.640Z,0
2017-02-18T18:26:42.739Z,0
2017-02-18T18:27:48.841Z,0
2017-02-18T18:28:54.953Z,0
2017-02-18T18:30:01.045Z,0
2017-02-18T18:31:06.176Z,0
2017-02-18T18:32:11.304Z,0
2017-02-18T18:33:16.431Z,0
2017-02-18T18:34:22.551Z,0
2017-02-18T18:35:28.669Z,0
2017-02-18T18:36:32.812Z,0
2017-02-18T18:37:37.959Z,0
2017-02-18T18:38:43.103Z,0
2017-02-18T18:39:47.274Z,0
2017-02-18T18:40:53.376Z,0
2017-02-18T18:41:59.489Z,0
2017-02-18T18:43:05.591Z,0
2017-02-18T18:44:10.721Z,0
2017-02-18T18:45:15.872Z,0
2017-02-18T18:46:20.989Z,0
2017-02-18T18:47:27.087Z,0
2017-02-18T18:48:33.199Z,0
2017-02-18T18:49:38.348Z,0
2017-02-18T18:50:44.448Z,0
2017-02-18T18:51:49.586Z,0
2017-02-18T18:52:55.679Z,0
2017-02-18T18:54:00.804Z,0
2017-02-18T18:55:05.932Z,0
2017-02-18T18:56:11.057Z,0
2017-02-18T18:57:17.160Z,0
2017-02-18T18:58:23.257Z,0
2017-02-18T19:00:35.450Z,0
2017-02-18T19:01:41.548Z,0
2017-02-18T19:02:46.662Z,0
2017-02-18T19:03:51.767Z,0
2017-02-18T19:04:57.865Z,0
2017-02-18T19:06:03.974Z,0
2017-02-18T19:07:10.085Z,0
2017-02-18T19:08:15.219Z,0
2017-02-18T19:09:20.353Z,0
2017-02-18T19:10:26.443Z,0
2017-02-18T19:11:32.565Z,0
2017-02-18T19:12:37.747Z,0
2017-02-18T19:13:43.835Z,0
2017-02-18T19:14:48.962Z,0
2017-02-18T19:15:54.095Z,0
2017-02-18T19:16:59.230Z,0
2017-02-18T19:18:05.348Z,0
2017-02-18T19:19:10.459Z,0
2017-02-18T19:20:16.558Z,0
2017-02-18T19:21:22.692Z,0
2017-02-18T19:22:28.767Z,0
2017-02-18T19:23:34.886Z,0
2017-02-18T19:24:40.041Z,0
2017-02-18T19:25:46.175Z,0
2017-02-18T19:26:52.263Z,0
2017-02-18T19:27:58.362Z,0
2017-02-18T19:29:03.526Z,0
2017-02-18T19:30:09.609Z,0
2017-02-18T19:31:12.024Z,0
2017-02-18T19:32:17.053Z,0
2017-02-18T19:33:23.258Z,0
2017-02-18T19:34:28.372Z,0
2017-02-18T19:35:33.514Z,0
2017-02-18T19:36:39.650Z,0
2017-02-18T19:37:44.764Z,0
2017-02-18T19:38:50.914Z,0
2017-02-18T19:39:56.126Z,0
2017-02-18T19:41:02.285Z,0
2017-02-18T19:42:06.413Z,0
2017-02-18T19:43:10.563Z,0
2017-02-18T19:44:16.669Z,0
2017-02-18T19:45:21.801Z,0
2017-02-18T19:46:26.931Z,0
2017-02-18T19:47:32.059Z,0
2017-02-18T19:48:38.168Z,0
2017-02-18T19:49:43.298Z,0
2017-02-18T19:50:49.384Z,0
2017-02-18T19:51:54.523Z,0
2017-02-18T19:53:00.624Z,0
2017-02-18T19:54:05.754Z,0
2017-02-18T19:55:10.888Z,0
2017-02-18T19:56:17.008Z,0
2017-02-18T19:57:21.150Z,0
2017-02-18T19:58:25.274Z,0
2017-02-18T19:59:31.372Z,0
2017-02-18T20:00:37.477Z,0
2017-02-18T20:01:43.585Z,0
2017-02-18T20:02:48.713Z,0
2017-02-18T20:03:53.864Z,0
2017-02-18T20:04:58.986Z,0
2017-02-18T20:06:05.087Z,0
2017-02-18T20:07:10.177Z,0
2017-02-18T20:08:16.284Z,0
2017-02-18T20:09:21.784Z,0
2017-02-18T20:10:27.937Z,0
2017-02-18T20:11:32.107Z,0
2017-02-18T20:12:36.289Z,0
2017-02-18T20:13:42.384Z,0
2017-02-18T20:14:47.503Z,0
2017-02-18T20:15:51.684Z,0
2017-02-18T20:16:55.937Z,0
2017-02-18T20:18:02.061Z,0
2017-02-18T20:19:08.161Z,0
2017-02-18T20:20:13.289Z,0
2017-02-18T20:21:18.388Z,0
2017-02-18T20:22:24.496Z,0
2017-02-18T20:23:30.600Z,0
2017-02-18T20:24:36.697Z,0
2017-02-18T20:25:42.794Z,0
2017-02-18T20:26:48.884Z,0
2017-02-18T20:27:54.011Z,0
2017-02-18T20:29:00.140Z,0
2017-02-18T20:30:05.260Z,0
2017-02-18T20:31:10.380Z,0
2017-02-18T20:32:12.588Z,0
2017-02-18T20:33:18.682Z,0
2017-02-18T20:34:23.809Z,0
2017-02-18T20:35:28.936Z,0
2017-02-18T20:36:35.030Z,0
2017-02-18T20:37:41.134Z,0
2017-02-18T20:38:45.293Z,0
2017-02-18T20:39:51.406Z,0
2017-02-18T20:40:56.526Z,0
2017-02-18T20:42:01.693Z,0
2017-02-18T20:43:07.779Z,0
2017-02-18T20:44:12.915Z,0
2017-02-18T20:45:18.128Z,0
2017-02-18T20:46:24.277Z,0
2017-02-18T20:47:29.416Z,0
2017-02-18T20:48:34.550Z,0
2017-02-18T20:49:39.683Z,0
2017-02-18T20:50:44.783Z,0
2017-02-18T20:51:49.907Z,0
2017-02-18T20:52:55.031Z,0
2017-02-18T20:54:01.139Z,0
2017-02-18T20:55:06.274Z,0
2017-02-18T20:56:12.442Z,0
2017-02-18T20:57:17.643Z,0
2017-02-18T20:58:23.740Z,0
2017-02-18T20:59:27.882Z,0
2017-02-18T21:00:33.986Z,0
2017-02-18T21:01:39.115Z,0
2017-02-18T21:02:45.209Z,0
2017-02-18T21:03:49.378Z,0
2017-02-18T21:04:55.466Z,0
2017-02-18T21:06:00.595Z,0
2017-02-18T21:07:06.697Z,0
2017-02-18T21:08:12.812Z,0
2017-02-18T21:09:17.952Z,0
2017-02-18T21:10:24.061Z,0
2017-02-18T21:11:29.193Z,0
2017-02-18T21:12:35.284Z,0
2017-02-18T21:13:40.434Z,0
2017-02-18T21:14:45.555Z,0
2017-02-18T21:15:51.648Z,0
2017-02-18T21:16:56.777Z,0
2017-02-18T21:18:02.875Z,0
2017-02-18T21:19:08.989Z,0
2017-02-18T21:20:15.090Z,0
2017-02-18T21:21:20.216Z,0
2017-02-18T21:22:26.309Z,0
2017-02-18T21:23:31.438Z,0
2017-02-18T21:24:36.569Z,0
2017-02-18T21:25:41.694Z,0
2017-02-18T21:26:47.795Z,0
2017-02-18T21:27:52.926Z,0
2017-02-18T21:28:59.017Z,0
2017-02-18T21:30:05.120Z,0
2017-02-18T21:31:10.246Z,0
2017-02-18T21:32:15.361Z,0
2017-02-18T21:33:21.462Z,0
2017-02-18T21:34:27.568Z,0
2017-02-18T21:35:33.670Z,0
2017-02-18T21:36:38.817Z,0
2017-02-18T21:37:44.911Z,0
2017-02-18T21:38:51.005Z,0
2017-02-18T21:39:55.169Z,0
2017-02-18T21:41:01.266Z,0
2017-02-18T21:42:07.354Z,0
2017-02-18T21:43:13.465Z,0
2017-02-18T21:44:19.631Z,0
2017-02-18T21:45:25.724Z,0
2017-02-18T21:46:31.863Z,0
2017-02-18T21:47:36.987Z,0
2017-02-18T21:48:43.079Z,0
2017-02-18T21:49:49.181Z,0
2017-02-18T21:50:55.290Z,0
2017-02-18T21:52:01.378Z,0
2017-02-18T21:53:06.508Z,0
2017-02-18T21:54:12.655Z,0
2017-02-18T21:55:18.759Z,0
2017-02-18T21:56:23.905Z,0
2017-02-18T21:57:30.002Z,0
2017-02-18T21:58:36.101Z,0
2017-02-18T21:59:42.222Z,0
2017-02-18T22:00:47.321Z,0
2017-02-18T22:01:53.438Z,0
2017-02-18T22:02:58.551Z,0
2017-02-18T22:05:09.785Z,0
2017-02-18T22:06:15.891Z,0
2017-02-18T22:07:21.997Z,0
2017-02-18T22:08:28.210Z,0
2017-02-18T22:09:34.353Z,0
2017-02-18T22:10:40.441Z,0
2017-02-18T22:11:45.570Z,0
2017-02-18T22:12:51.702Z,0
2017-02-18T22:13:57.800Z,0
2017-02-18T22:15:03.908Z,0
2017-02-18T22:16:10.011Z,0